Time;durP1;ratioP1;P1;durP2;ratioP2;P2;SDS_P1;SDS_P2;PMS_P1;PMS_P2;Temp;Humidity;BMP_temperature;BMP_pressure;BME280_temperature;BME280_humidity;BME280_pressure;Samples;Min_cycle;Max_cycle;Signal;HPM_P1;HPM_P2
2022/01/30 00:04:32;;;;;;;1.50;1.40;;;7.60;99.90;;;;;;10423024;28;20234;-82
2022/01/30 00:09:34;;;;;;;1.53;1.43;;;7.70;99.90;;;;;;10435404;28;20193;-78
2022/01/30 00:14:38;;;;;;;1.70;1.60;;;7.80;99.90;;;;;;10425750;28;20222;-78
2022/01/30 00:19:45;;;;;;;1.97;1.87;;;7.80;99.90;;;;;;10452035;28;20205;-81
2022/01/30 00:24:53;;;;;;;1.67;1.57;;;7.80;99.90;;;;;;10416681;28;20417;-80
2022/01/30 00:29:56;;;;;;;1.90;1.80;;;7.90;99.90;;;;;;10425662;28;20292;-82
2022/01/30 00:34:58;;;;;;;1.63;1.57;;;8.00;99.90;;;;;;10451628;28;20260;-79
2022/01/30 00:40:00;;;;;;;2.80;1.57;;;8.00;99.90;;;;;;10423840;28;20221;-81
2022/01/30 00:45:05;;;;;;;1.50;1.50;;;8.10;99.90;;;;;;10437824;28;20221;-79
2022/01/30 00:50:08;;;;;;;1.47;1.47;;;8.10;99.90;;;;;;10430128;28;20205;-79
2022/01/30 00:55:10;;;;;;;1.80;1.70;;;8.20;99.90;;;;;;10454590;28;20233;-82
2022/01/30 01:00:15;;;;;;;1.63;1.57;;;8.20;99.90;;;;;;10460999;28;20657;-80
2022/01/30 01:05:18;;;;;;;1.67;1.67;;;8.30;99.90;;;;;;10435136;28;20280;-78
2022/01/30 01:10:30;;;;;;;1.80;1.70;;;8.30;99.90;;;;;;10437056;28;20248;-80
2022/01/30 01:26:21;;;;;;;1.80;1.70;;;8.30;99.90;;;;;;10416324;28;20723;-80
2022/01/30 01:31:25;;;;;;;1.90;1.80;;;8.30;99.90;;;;;;10425986;28;20283;-80
2022/01/30 01:36:27;;;;;;;2.00;1.80;;;8.30;99.90;;;;;;10439760;28;20296;-79
2022/01/30 01:41:31;;;;;;;1.50;1.40;;;8.30;99.90;;;;;;10451743;28;20197;-79
2022/01/30 01:46:35;;;;;;;1.90;1.80;;;8.40;99.90;;;;;;10462967;28;20228;-80
2022/01/30 01:51:37;;;;;;;2.03;1.93;;;8.40;99.90;;;;;;10440579;28;20211;-80
2022/01/30 01:56:40;;;;;;;1.60;1.50;;;8.30;99.90;;;;;;10464633;22;20264;-77
2022/01/30 02:02:11;;;;;;;1.90;1.80;;;8.30;99.90;;;;;;10453687;28;20197;-78
2022/01/30 02:12:43;;;;;;;2.33;1.80;;;8.30;99.90;;;;;;10441361;28;20197;-79
2022/01/30 02:28:34;;;;;;;2.20;2.10;;;8.10;99.90;;;;;;10432888;28;20711;-78
2022/01/30 02:33:36;;;;;;;2.43;2.33;;;8.10;99.90;;;;;;10455540;28;20749;-78
2022/01/30 02:38:40;;;;;;;2.27;2.17;;;8.10;99.90;;;;;;10459471;28;20781;-76
2022/01/30 02:43:54;;;;;;;2.10;2.00;;;8.10;99.90;;;;;;10459032;28;20201;-78
2022/01/30 02:48:59;;;;;;;2.03;1.93;;;8.20;99.90;;;;;;10458697;28;20220;-77
2022/01/30 02:54:05;;;;;;;2.47;2.37;;;8.20;99.90;;;;;;10458801;28;20224;-77
2022/01/30 02:59:12;;;;;;;2.20;2.10;;;8.20;99.90;;;;;;10458453;28;20623;-78
2022/01/30 03:04:14;;;;;;;2.70;2.20;;;8.20;99.90;;;;;;10453409;28;20224;-79
2022/01/30 03:09:17;;;;;;;2.53;2.33;;;8.20;99.90;;;;;;10450064;28;20227;-78
2022/01/30 03:14:19;;;;;;;2.07;1.97;;;8.30;99.90;;;;;;10457922;28;20228;-77
2022/01/30 03:19:22;;;;;;;2.40;2.30;;;8.30;99.90;;;;;;10467389;28;20661;-78
2022/01/30 03:24:25;;;;;;;2.50;2.40;;;8.40;99.90;;;;;;10469223;28;21269;-77
2022/01/30 03:29:32;;;;;;;5.07;4.43;;;8.50;99.90;;;;;;10451679;28;20565;-79
2022/01/30 03:34:35;;;;;;;14.40;9.40;;;8.40;99.90;;;;;;10452365;28;20221;-79
2022/01/30 03:39:39;;;;;;;5.07;4.13;;;8.50;99.90;;;;;;10469091;28;20209;-79
2022/01/30 03:44:41;;;;;;;5.17;2.30;;;8.50;99.90;;;;;;10459300;28;20301;-78
2022/01/30 03:49:44;;;;;;;2.93;2.63;;;8.50;99.90;;;;;;10431344;28;20216;-78
2022/01/30 03:54:48;;;;;;;2.37;2.17;;;8.50;99.90;;;;;;10460374;28;20229;-78
2022/01/30 03:59:50;;;;;;;2.87;2.23;;;8.60;99.90;;;;;;10463264;28;20227;-78
2022/01/30 04:04:53;;;;;;;2.50;2.30;;;8.60;99.90;;;;;;10459004;28;20217;-78
2022/01/30 04:09:57;;;;;;;3.57;2.40;;;8.60;99.90;;;;;;10459807;28;20207;-78
2022/01/30 04:15:09;;;;;;;2.60;2.40;;;8.60;99.90;;;;;;10460104;28;20232;-78
2022/01/30 04:20:36;;;;;;;2.40;2.30;;;8.70;99.90;;;;;;10458676;28;20228;-80
2022/01/30 04:25:50;;;;;;;4.37;2.50;;;8.70;99.90;;;;;;10461647;28;20295;-79
2022/01/30 04:31:15;;;;;;;4.03;3.63;;;8.80;99.90;;;;;;10461298;28;20213;-78
2022/01/30 04:36:35;;;;;;;6.67;3.33;;;8.80;99.90;;;;;;10459333;28;20213;-79
2022/01/30 04:42:16;;;;;;;4.17;3.40;;;8.80;99.90;;;;;;10458975;28;20196;-78
2022/01/30 04:53:23;;;;;;;5.37;3.77;;;8.80;99.90;;;;;;10459689;28;20219;-79
2022/01/30 04:58:53;;;;;;;5.23;4.00;;;8.80;99.90;;;;;;10457763;28;20205;-79
2022/01/30 05:04:27;;;;;;;7.23;3.63;;;8.70;99.90;;;;;;10450502;28;20580;-79
2022/01/30 05:09:52;;;;;;;6.43;3.80;;;8.70;99.90;;;;;;10447254;28;20283;-77
2022/01/30 05:15:18;;;;;;;7.20;3.87;;;8.60;99.90;;;;;;10441111;28;20244;-76
2022/01/30 05:20:41;;;;;;;7.63;3.33;;;8.60;99.90;;;;;;10454921;28;20197;-77
2022/01/30 05:26:15;;;;;;;6.40;4.20;;;8.60;99.90;;;;;;10421883;28;20721;-77
2022/01/30 05:31:32;;;;;;;6.03;4.20;;;8.60;99.90;;;;;;10443435;28;20197;-79
2022/01/30 05:37:09;;;;;;;13.40;4.53;;;8.50;99.90;;;;;;10455644;28;20217;-79
2022/01/30 05:42:30;;;;;;;5.13;3.97;;;8.50;99.90;;;;;;10459034;28;20220;-79
2022/01/30 05:47:58;;;;;;;11.87;5.13;;;8.60;99.90;;;;;;10457899;28;20229;-79
2022/01/30 05:53:29;;;;;;;7.00;3.73;;;8.60;99.90;;;;;;10440115;28;20205;-78
2022/01/30 05:58:51;;;;;;;7.00;4.20;;;8.60;99.90;;;;;;10426512;28;20688;-76
2022/01/30 06:03:58;;;;;;;5.63;3.70;;;8.60;99.90;;;;;;10401737;28;20755;-77
2022/01/30 06:09:18;;;;;;;7.93;4.40;;;8.70;99.90;;;;;;10448045;28;20654;-78
2022/01/30 06:14:24;;;;;;;7.73;4.60;;;8.70;99.90;;;;;;10415851;28;20308;-78
2022/01/30 06:19:37;;;;;;;7.20;3.90;;;8.70;99.90;;;;;;10462614;28;20200;-77
2022/01/30 06:25:02;;;;;;;6.97;4.00;;;8.70;99.90;;;;;;10420152;28;20256;-77
2022/01/30 06:30:33;;;;;;;12.77;3.80;;;8.60;99.90;;;;;;10423702;28;20216;-79
2022/01/30 06:35:59;;;;;;;6.87;4.63;;;8.60;99.90;;;;;;10459027;28;20221;-79
2022/01/30 06:41:06;;;;;;;8.43;3.93;;;8.60;99.90;;;;;;10461646;28;20602;-79
2022/01/30 06:46:27;;;;;;;6.90;3.60;;;8.50;99.90;;;;;;10459249;28;20228;-79
2022/01/30 06:51:49;;;;;;;11.67;3.90;;;8.50;99.90;;;;;;10458299;28;20221;-79
2022/01/30 06:57:10;;;;;;;7.10;3.90;;;8.40;99.90;;;;;;10454007;28;20255;-79
2022/01/30 07:02:30;;;;;;;5.97;3.70;;;8.20;99.90;;;;;;10461194;28;20276;-78
2022/01/30 07:07:54;;;;;;;9.10;4.50;;;8.10;99.90;;;;;;10458005;28;20225;-79
2022/01/30 07:12:56;;;;;;;8.70;4.40;;;8.10;99.90;;;;;;10449749;28;20206;-79
2022/01/30 07:17:58;;;;;;;7.70;4.60;;;8.10;99.90;;;;;;10456179;28;20643;-79
2022/01/30 07:23:01;;;;;;;6.67;4.17;;;8.10;99.90;;;;;;10457110;28;20297;-77
2022/01/30 07:28:04;;;;;;;10.50;3.73;;;8.10;99.90;;;;;;10444083;28;20304;-77
2022/01/30 07:33:06;;;;;;;10.37;3.60;;;8.00;99.90;;;;;;10459181;28;20225;-77
2022/01/30 07:38:10;;;;;;;5.80;3.93;;;8.00;99.90;;;;;;10452164;28;20216;-77
2022/01/30 07:43:12;;;;;;;8.57;4.43;;;8.00;99.90;;;;;;10453977;28;20548;-79
2022/01/30 07:48:22;;;;;;;9.47;4.50;;;8.00;99.90;;;;;;10443569;28;20631;-77
2022/01/30 07:53:26;;;;;;;9.47;5.30;;;8.10;99.90;;;;;;10457793;28;20215;-78
2022/01/30 07:58:28;;;;;;;8.53;4.67;;;8.10;99.90;;;;;;10601575;22;20242;-81
2022/01/30 08:03:30;;;;;;;10.10;4.53;;;8.10;99.90;;;;;;10584520;28;20214;-82
2022/01/30 08:08:34;;;;;;;9.70;4.60;;;8.20;99.90;;;;;;10551798;28;20226;-80
2022/01/30 08:13:36;;;;;;;10.43;4.60;;;8.20;99.90;;;;;;10574456;28;20274;-83
2022/01/30 08:18:38;;;;;;;7.57;4.30;;;8.10;99.90;;;;;;10563079;28;20232;-83
2022/01/30 08:23:43;;;;;;;9.90;4.13;;;8.10;99.90;;;;;;10579180;28;20206;-83
2022/01/30 08:28:45;;;;;;;9.80;4.40;;;8.20;99.90;;;;;;10564987;28;20679;-83
2022/01/30 08:33:47;;;;;;;9.03;4.17;;;8.10;99.90;;;;;;10583047;28;20570;-83
2022/01/30 08:38:50;;;;;;;12.00;4.20;;;8.10;99.90;;;;;;10583018;28;20298;-85
2022/01/30 08:43:52;;;;;;;13.90;4.60;;;8.10;99.90;;;;;;10569512;28;20285;-84
2022/01/30 08:48:55;;;;;;;8.00;3.90;;;8.10;99.90;;;;;;10580860;28;20663;-85
2022/01/30 08:53:58;;;;;;;8.80;4.17;;;8.00;99.90;;;;;;10579634;28;20196;-84
2022/01/30 08:59:00;;;;;;;8.57;4.13;;;8.00;99.90;;;;;;10546901;28;20300;-83
2022/01/30 09:04:03;;;;;;;10.73;4.13;;;8.00;99.90;;;;;;10554466;28;20202;-82
2022/01/30 09:09:06;;;;;;;8.40;3.87;;;8.00;99.90;;;;;;10540870;27;20212;-84
2022/01/30 09:14:09;;;;;;;6.30;3.83;;;8.10;99.90;;;;;;10548260;28;20287;-83
2022/01/30 09:19:11;;;;;;;9.97;3.93;;;8.10;99.90;;;;;;10547999;28;20237;-83
2022/01/30 09:24:14;;;;;;;6.70;3.43;;;8.10;99.90;;;;;;10542896;28;20622;-83
2022/01/30 09:29:16;;;;;;;7.63;3.60;;;8.10;99.90;;;;;;10512314;28;20303;-84
2022/01/30 09:34:19;;;;;;;9.97;4.20;;;8.10;99.90;;;;;;10534711;28;20671;-84
2022/01/30 09:39:24;;;;;;;10.00;3.90;;;8.10;99.90;;;;;;10555836;28;20207;-84
2022/01/30 09:44:26;;;;;;;11.77;4.90;;;8.30;99.90;;;;;;10536545;28;20617;-84
2022/01/30 09:49:30;;;;;;;11.03;4.20;;;8.30;99.90;;;;;;10553885;28;20747;-85
2022/01/30 09:54:35;;;;;;;15.13;4.27;;;8.40;99.90;;;;;;10550655;28;20226;-85
2022/01/30 09:59:37;;;;;;;10.07;4.50;;;8.50;99.90;;;;;;10563344;28;20195;-84
2022/01/30 10:04:40;;;;;;;9.33;4.47;;;8.60;99.90;;;;;;10576991;28;20696;-81
2022/01/30 10:09:46;;;;;;;7.87;3.90;;;8.70;99.90;;;;;;10532669;28;20216;-83
2022/01/30 10:14:54;;;;;;;9.90;4.80;;;8.80;99.90;;;;;;10559295;28;20303;-83
2022/01/30 10:20:11;;;;;;;10.37;3.90;;;8.80;99.90;;;;;;10550760;28;20476;-85
2022/01/30 10:25:19;;;;;;;17.00;4.67;;;8.90;99.90;;;;;;10584385;28;20223;-81
2022/01/30 10:30:22;;;;;;;10.60;4.00;;;9.00;99.90;;;;;;10577211;28;20224;-83
2022/01/30 10:35:26;;;;;;;7.80;3.80;;;9.10;99.90;;;;;;10586953;28;20287;-83
2022/01/30 10:40:36;;;;;;;8.87;3.70;;;9.10;99.90;;;;;;10566784;28;20194;-82
2022/01/30 10:45:38;;;;;;;11.00;3.93;;;9.00;99.90;;;;;;10555206;28;20246;-82
2022/01/30 10:50:44;;;;;;;14.20;4.17;;;9.00;99.90;;;;;;10538979;28;20254;-83
2022/01/30 10:55:48;;;;;;;6.70;3.40;;;9.00;99.90;;;;;;10549815;28;20729;-82
2022/01/30 11:00:55;;;;;;;7.73;3.33;;;9.00;99.40;;;;;;10537749;28;20700;-83
2022/01/30 11:05:59;;;;;;;5.43;3.07;;;9.00;99.90;;;;;;10576570;28;20279;-83
2022/01/30 11:11:08;;;;;;;8.80;3.70;;;9.10;99.90;;;;;;10537831;28;20224;-83
2022/01/30 11:21:31;;;;;;;10.27;3.90;;;9.30;99.90;;;;;;10562336;28;20195;-83
2022/01/30 11:26:34;;;;;;;9.60;4.10;;;9.20;99.90;;;;;;10580614;28;20240;-84
2022/01/30 11:31:37;;;;;;;9.63;4.23;;;9.00;99.90;;;;;;10564776;28;20193;-84
2022/01/30 11:36:42;;;;;;;12.63;4.27;;;9.00;99.90;;;;;;10549309;28;20218;-83
2022/01/30 11:42:06;;;;;;;16.33;4.70;;;9.00;99.90;;;;;;10552626;28;20206;-84
2022/01/30 11:47:26;;;;;;;6.53;3.50;;;8.80;99.90;;;;;;10561577;28;20211;-82
2022/01/30 11:52:47;;;;;;;7.13;3.60;;;8.80;99.90;;;;;;10555095;28;20196;-82
2022/01/30 11:57:51;;;;;;;11.23;4.30;;;8.80;99.90;;;;;;10551495;28;20254;-82
2022/01/30 12:03:23;;;;;;;8.70;3.23;;;8.70;99.10;;;;;;10578937;28;20195;-82
2022/01/30 12:08:44;;;;;;;12.93;5.00;;;8.60;99.90;;;;;;10547012;28;20231;-82
2022/01/30 12:13:47;;;;;;;4.83;2.70;;;8.60;99.90;;;;;;10566458;28;20219;-83
2022/01/30 12:18:49;;;;;;;12.10;4.70;;;8.70;99.40;;;;;;10554304;28;20219;-82
2022/01/30 12:23:54;;;;;;;8.43;3.23;;;8.90;98.60;;;;;;10549721;28;20262;-82
2022/01/30 12:28:59;;;;;;;11.67;4.33;;;8.90;98.20;;;;;;10554721;28;20215;-82
2022/01/30 12:34:03;;;;;;;11.20;4.10;;;8.90;99.90;;;;;;10557452;28;20687;-84
2022/01/30 12:39:08;;;;;;;10.73;3.83;;;9.00;99.90;;;;;;10579447;28;20550;-84
2022/01/30 12:44:13;;;;;;;9.87;3.90;;;9.10;99.10;;;;;;10552886;28;20206;-81
2022/01/30 12:49:17;;;;;;;10.53;4.00;;;9.10;98.50;;;;;;10564313;28;20241;-82
2022/01/30 12:54:22;;;;;;;12.50;4.47;;;9.10;99.60;;;;;;10539659;28;20560;-82
2022/01/30 12:59:25;;;;;;;10.03;4.00;;;9.20;99.40;;;;;;10567861;28;20187;-81
2022/01/30 13:04:27;;;;;;;7.43;3.33;;;9.30;99.90;;;;;;10549659;28;20594;-81
2022/01/30 13:09:31;;;;;;;4.73;3.20;;;9.40;99.50;;;;;;10543695;28;20224;-82
2022/01/30 13:14:37;;;;;;;7.37;3.50;;;9.50;97.60;;;;;;10550134;28;20216;-82
2022/01/30 13:19:40;;;;;;;7.73;4.00;;;9.50;97.70;;;;;;10546144;28;20258;-81
2022/01/30 13:24:54;;;;;;;10.40;4.13;;;9.60;97.60;;;;;;10547059;28;20336;-81
2022/01/30 13:29:58;;;;;;;5.70;3.13;;;9.70;97.20;;;;;;10576309;28;20236;-80
2022/01/30 13:35:02;;;;;;;9.20;3.90;;;9.70;98.10;;;;;;10585070;28;20235;-81
2022/01/30 13:40:13;;;;;;;9.93;3.70;;;9.60;95.80;;;;;;10564512;28;20205;-81
2022/01/30 13:50:43;;;;;;;8.07;4.10;;;9.30;97.90;;;;;;10555531;28;20788;-83
2022/01/30 13:56:00;;;;;;;6.80;3.73;;;9.30;98.30;;;;;;10543632;28;20612;-81
2022/01/30 14:01:07;;;;;;;8.57;3.33;;;9.40;97.00;;;;;;10548172;28;20196;-83
2022/01/30 14:06:17;;;;;;;6.67;3.43;;;9.40;97.60;;;;;;10552759;28;20735;-81
2022/01/30 14:11:26;;;;;;;9.30;3.90;;;9.30;97.10;;;;;;10540360;28;20287;-82
2022/01/30 14:16:41;;;;;;;9.33;3.30;;;9.10;97.50;;;;;;10552567;28;20223;-81
2022/01/30 14:21:43;;;;;;;7.97;3.77;;;9.10;96.90;;;;;;10550088;28;20313;-83
2022/01/30 14:26:46;;;;;;;9.27;4.23;;;9.10;97.70;;;;;;10543887;28;20220;-82
2022/01/30 14:31:55;;;;;;;7.70;3.40;;;9.10;97.70;;;;;;10558212;28;20656;-82
2022/01/30 14:37:00;;;;;;;7.13;3.10;;;9.20;97.60;;;;;;10566505;28;20214;-81
2022/01/30 14:42:13;;;;;;;7.83;3.70;;;9.20;98.10;;;;;;10559027;28;20196;-80
2022/01/30 14:47:18;;;;;;;7.67;3.30;;;9.20;97.90;;;;;;10551491;28;20222;-80
2022/01/30 14:52:21;;;;;;;5.90;2.80;;;9.20;96.50;;;;;;10557792;28;20200;-82
2022/01/30 14:57:24;;;;;;;4.37;3.00;;;9.20;96.90;;;;;;10573677;28;20230;-81
2022/01/30 15:02:28;;;;;;;7.23;3.10;;;9.20;97.30;;;;;;10537529;28;20225;-82
2022/01/30 15:07:31;;;;;;;6.57;3.27;;;9.30;97.30;;;;;;10569775;28;20222;-81
2022/01/30 15:12:35;;;;;;;10.33;3.87;;;9.20;96.20;;;;;;10566909;28;20611;-82
2022/01/30 15:17:40;;;;;;;9.07;4.13;;;9.20;96.20;;;;;;10548192;28;20584;-82
2022/01/30 15:22:44;;;;;;;8.43;4.00;;;9.20;97.30;;;;;;10564718;28;20538;-82
2022/01/30 15:27:46;;;;;;;11.40;3.57;;;9.20;97.80;;;;;;10563329;28;20314;-81
2022/01/30 15:32:49;;;;;;;8.73;3.33;;;9.10;96.10;;;;;;10567214;28;20621;-82
2022/01/30 15:37:52;;;;;;;6.97;3.00;;;9.00;96.60;;;;;;10579164;28;20713;-81
2022/01/30 15:42:54;;;;;;;9.20;3.40;;;8.90;95.80;;;;;;10576580;28;20559;-82
2022/01/30 15:53:17;;;;;;;8.90;3.90;;;8.60;97.40;;;;;;10552167;28;20199;-82
2022/01/30 15:58:21;;;;;;;6.33;3.40;;;8.40;98.20;;;;;;10567330;28;20224;-82
2022/01/30 16:03:25;;;;;;;7.23;3.63;;;8.40;98.00;;;;;;10562516;28;20199;-83
2022/01/30 16:08:30;;;;;;;8.40;3.87;;;8.30;99.00;;;;;;10557305;28;20212;-83
2022/01/30 16:18:43;;;;;;;6.07;3.67;;;8.20;98.20;;;;;;10558638;28;20204;-81
2022/01/30 16:23:45;;;;;;;8.93;3.47;;;8.10;99.40;;;;;;10573645;28;20245;-81
2022/01/30 16:28:47;;;;;;;8.20;4.00;;;8.00;99.20;;;;;;10579800;28;20215;-81
2022/01/30 16:33:51;;;;;;;6.20;3.70;;;8.00;99.90;;;;;;10565244;28;20203;-81
2022/01/30 16:38:53;;;;;;;9.77;4.60;;;7.90;99.90;;;;;;10558150;28;20289;-82
2022/01/30 16:43:56;;;;;;;7.20;3.90;;;7.90;99.80;;;;;;10571196;28;20210;-84
2022/01/30 16:49:02;;;;;;;9.20;4.20;;;7.90;98.90;;;;;;10561515;28;20238;-84
2022/01/30 16:54:04;;;;;;;11.20;5.67;;;7.80;98.60;;;;;;10576137;28;20208;-83
2022/01/30 16:59:06;;;;;;;10.70;6.13;;;7.80;99.80;;;;;;10578524;28;20196;-84
2022/01/30 17:04:10;;;;;;;10.93;6.10;;;7.80;99.20;;;;;;10544680;28;20203;-83
2022/01/30 17:09:26;;;;;;;8.17;4.07;;;7.70;99.90;;;;;;10544106;28;20310;-83
2022/01/30 17:14:28;;;;;;;12.17;5.10;;;7.70;99.20;;;;;;10552133;28;20270;-83
2022/01/30 17:19:32;;;;;;;12.07;5.17;;;7.60;99.60;;;;;;10552590;28;20202;-83
2022/01/30 17:24:34;;;;;;;10.10;4.63;;;7.60;99.90;;;;;;10553221;28;20662;-82
2022/01/30 17:29:38;;;;;;;17.57;9.80;;;7.50;99.50;;;;;;10561698;28;20586;-82
2022/01/30 17:34:41;;;;;;;19.10;11.20;;;7.40;97.90;;;;;;10547297;28;20779;-81
2022/01/30 17:39:43;;;;;;;10.30;7.60;;;7.30;98.80;;;;;;10534673;28;20196;-82
2022/01/30 17:44:45;;;;;;;12.53;7.00;;;7.10;98.40;;;;;;10576343;28;20258;-82
2022/01/30 17:49:49;;;;;;;11.37;6.27;;;6.90;98.80;;;;;;10551991;28;20223;-81
2022/01/30 17:54:51;;;;;;;7.47;5.50;;;6.60;99.40;;;;;;10574593;28;20234;-82
2022/01/30 17:59:54;;;;;;;10.40;6.50;;;6.50;99.10;;;;;;10567585;28;20195;-82
2022/01/30 18:04:58;;;;;;;9.60;5.43;;;6.40;99.20;;;;;;10551784;28;20219;-81
2022/01/30 18:10:00;;;;;;;15.10;6.93;;;6.20;99.90;;;;;;10541091;28;20786;-81
2022/01/30 18:15:02;;;;;;;9.43;5.87;;;6.10;99.90;;;;;;10545656;28;20269;-83
2022/01/30 18:20:08;;;;;;;7.63;5.37;;;6.00;99.90;;;;;;10540781;28;20200;-82
2022/01/30 18:25:10;;;;;;;11.17;5.60;;;5.90;99.90;;;;;;10569073;28;20246;-85
2022/01/30 18:30:13;;;;;;;14.30;8.20;;;5.90;99.90;;;;;;10581682;28;20240;-82
2022/01/30 18:35:16;;;;;;;7.40;5.40;;;5.70;99.90;;;;;;10545960;28;20374;-82
2022/01/30 18:40:35;;;;;;;12.70;6.63;;;5.70;99.90;;;;;;10540537;28;20180;-82
2022/01/30 18:45:38;;;;;;;11.00;8.00;;;5.60;99.90;;;;;;10544783;28;20474;-82
2022/01/30 18:50:41;;;;;;;14.10;9.03;;;5.50;99.90;;;;;;10563439;28;20246;-82
2022/01/30 18:55:43;;;;;;;14.13;8.53;;;5.40;99.90;;;;;;10545081;28;20321;-81
2022/01/30 19:00:46;;;;;;;13.80;10.80;;;5.30;99.90;;;;;;10545375;28;20196;-83
2022/01/30 19:05:51;;;;;;;25.53;19.40;;;5.20;99.90;;;;;;10545381;28;20318;-81
2022/01/30 19:10:53;;;;;;;29.70;19.47;;;5.20;99.90;;;;;;10576091;28;20207;-82
2022/01/30 19:15:56;;;;;;;37.60;25.07;;;5.20;99.90;;;;;;10564659;28;20247;-82
2022/01/30 19:20:59;;;;;;;32.80;22.40;;;5.20;99.90;;;;;;10557961;28;20191;-82
2022/01/30 19:26:01;;;;;;;26.23;18.10;;;5.30;99.90;;;;;;10564964;28;20216;-83
2022/01/30 19:31:03;;;;;;;19.17;13.30;;;5.20;99.90;;;;;;10559339;28;20319;-83
2022/01/30 19:36:08;;;;;;;19.60;12.83;;;5.30;99.90;;;;;;10573233;28;20226;-83
2022/01/30 19:41:11;;;;;;;16.73;10.10;;;5.30;99.90;;;;;;10572056;28;20240;-82
2022/01/30 19:46:16;;;;;;;18.90;13.40;;;5.30;99.90;;;;;;10560722;28;20306;-82
2022/01/30 19:51:19;;;;;;;23.40;11.93;;;5.30;99.90;;;;;;10532574;28;20215;-82
2022/01/30 19:56:21;;;;;;;14.23;8.87;;;5.30;99.90;;;;;;10597729;22;20237;-79
2022/01/30 20:01:24;;;;;;;15.27;10.60;;;5.20;99.90;;;;;;10446559;28;20524;-80
2022/01/30 20:06:33;;;;;;;16.63;10.50;;;5.20;99.90;;;;;;10433311;28;20304;-77
2022/01/30 20:11:35;;;;;;;17.27;10.87;;;5.20;99.90;;;;;;10436936;28;20213;-80
2022/01/30 20:16:41;;;;;;;15.30;7.93;;;5.10;99.90;;;;;;10440312;28;20224;-80
2022/01/30 20:21:44;;;;;;;17.37;9.23;;;5.00;99.90;;;;;;10443270;28;20285;-80
2022/01/30 20:26:46;;;;;;;16.30;11.00;;;5.00;99.90;;;;;;10439355;28;20310;-80
2022/01/30 20:31:48;;;;;;;10.40;8.37;;;5.00;99.90;;;;;;10451270;28;20743;-80
2022/01/30 20:36:54;;;;;;;15.10;9.70;;;5.00;99.90;;;;;;10422536;28;20224;-79
2022/01/30 20:41:56;;;;;;;12.53;9.13;;;5.00;99.90;;;;;;10424230;28;20202;-80
2022/01/30 20:46:58;;;;;;;12.20;8.40;;;4.90;99.90;;;;;;10440174;28;20225;-79
2022/01/30 20:52:02;;;;;;;14.17;8.63;;;4.70;99.90;;;;;;10437005;28;20586;-77
2022/01/30 20:57:05;;;;;;;13.40;8.60;;;4.70;99.90;;;;;;10434676;28;20612;-78
2022/01/30 21:02:07;;;;;;;20.30;8.20;;;4.70;99.90;;;;;;10430633;28;20190;-78
2022/01/30 21:07:11;;;;;;;11.70;7.13;;;4.60;99.90;;;;;;10434532;28;20217;-79
2022/01/30 21:12:13;;;;;;;15.90;7.47;;;4.60;99.90;;;;;;10433877;28;20233;-78
2022/01/30 21:17:15;;;;;;;12.13;8.43;;;4.60;99.90;;;;;;10435258;28;20214;-78
2022/01/30 21:22:18;;;;;;;12.00;7.67;;;4.50;99.90;;;;;;10434275;28;20197;-80
2022/01/30 21:27:21;;;;;;;10.33;7.30;;;4.60;99.90;;;;;;10455306;28;20221;-79
2022/01/30 21:32:23;;;;;;;11.60;6.93;;;4.50;99.90;;;;;;10450502;28;20265;-80
2022/01/30 21:37:26;;;;;;;13.87;6.63;;;4.60;99.90;;;;;;10458997;28;20221;-79
2022/01/30 21:42:31;;;;;;;15.67;7.93;;;4.50;99.90;;;;;;10453979;28;20232;-80
2022/01/30 21:47:36;;;;;;;11.87;6.77;;;4.60;99.90;;;;;;10456059;28;20227;-79
2022/01/30 21:52:40;;;;;;;16.23;7.47;;;4.60;99.90;;;;;;10449707;28;20231;-81
2022/01/30 21:57:45;;;;;;;10.90;7.17;;;4.70;99.90;;;;;;10449658;28;20221;-80
2022/01/30 22:02:55;;;;;;;10.40;6.77;;;4.70;99.90;;;;;;10456724;28;20428;-81
2022/01/30 22:08:01;;;;;;;11.70;6.70;;;4.80;99.90;;;;;;10438336;28;20259;-80
2022/01/30 22:13:08;;;;;;;10.83;5.63;;;4.80;99.90;;;;;;10456524;28;20708;-79
2022/01/30 22:18:11;;;;;;;11.23;5.60;;;4.90;99.90;;;;;;10438083;28;20218;-78
2022/01/30 22:23:18;;;;;;;13.10;5.20;;;5.00;99.90;;;;;;10415194;28;20216;-79
2022/01/30 22:28:30;;;;;;;8.20;4.77;;;5.00;99.90;;;;;;10425002;28;20213;-79
2022/01/30 22:33:41;;;;;;;8.10;4.97;;;4.90;99.90;;;;;;10410633;28;20200;-79
2022/01/30 22:38:47;;;;;;;13.50;5.57;;;4.80;99.90;;;;;;10446938;28;20221;-78
2022/01/30 22:43:49;;;;;;;11.13;5.77;;;4.70;99.90;;;;;;10437586;28;20697;-76
2022/01/30 22:48:51;;;;;;;11.53;5.63;;;4.70;99.90;;;;;;10442711;28;20311;-76
2022/01/30 22:53:54;;;;;;;10.00;5.77;;;4.70;99.90;;;;;;10435228;28;20208;-80
2022/01/30 22:58:56;;;;;;;8.90;6.30;;;4.60;99.90;;;;;;10444383;28;20225;-78
2022/01/30 23:04:01;;;;;;;10.73;6.77;;;4.60;99.90;;;;;;10443938;28;20201;-79
2022/01/30 23:09:05;;;;;;;10.30;6.40;;;4.50;99.90;;;;;;10428935;28;20237;-77
2022/01/30 23:14:07;;;;;;;17.87;6.60;;;4.40;99.90;;;;;;10412463;28;20198;-78
2022/01/30 23:19:11;;;;;;;11.20;6.13;;;4.40;99.90;;;;;;10425755;28;20214;-78
2022/01/30 23:24:17;;;;;;;10.20;6.00;;;4.40;99.90;;;;;;10424419;28;20194;-76
2022/01/30 23:29:22;;;;;;;13.33;6.03;;;4.50;99.90;;;;;;10421973;28;20209;-79
2022/01/30 23:34:24;;;;;;;10.60;5.80;;;4.60;99.90;;;;;;10429182;28;20293;-81
2022/01/30 23:39:40;;;;;;;14.43;6.17;;;4.70;99.90;;;;;;10425391;28;20241;-80
2022/01/30 23:44:44;;;;;;;10.93;6.20;;;4.70;99.90;;;;;;10426978;28;20578;-80
2022/01/30 23:49:46;;;;;;;15.43;6.47;;;4.90;99.90;;;;;;10434181;28;20213;-79
2022/01/30 23:54:49;;;;;;;18.33;6.30;;;4.80;99.90;;;;;;10431604;28;20201;-80
2022/01/30 23:59:53;;;;;;;14.00;5.80;;;4.90;99.90;;;;;;10417761;28;20213;-81
